createdAt,value
2022-10-23T00:01:23.262Z,13.00
2022-10-23T00:04:00.209Z,13.00
2022-10-23T00:06:28.259Z,13.00
2022-10-23T00:08:56.435Z,13.00
2022-10-23T00:11:26.300Z,13.00
2022-10-23T00:14:00.313Z,13.10
2022-10-23T00:16:28.548Z,13.00
2022-10-23T00:18:55.998Z,13.00
2022-10-23T00:21:23.861Z,13.00
2022-10-23T00:23:51.101Z,13.00
2022-10-23T00:26:18.614Z,13.00
2022-10-23T00:28:49.205Z,13.00
2022-10-23T00:31:16.784Z,13.00
2022-10-23T00:33:44.544Z,13.00
2022-10-23T00:36:12.942Z,12.90
2022-10-23T00:38:40.778Z,13.00
2022-10-23T00:41:09.326Z,12.90
2022-10-23T00:44:03.309Z,13.00
2022-10-23T00:46:30.646Z,12.90
2022-10-23T00:48:59.317Z,12.90
2022-10-23T00:51:31.449Z,12.90
2022-10-23T00:54:12.904Z,12.90
2022-10-23T00:56:47.646Z,12.90
2022-10-23T00:59:15.523Z,12.80
2022-10-23T01:01:43.235Z,12.80
2022-10-23T01:04:10.946Z,12.80
2022-10-23T01:07:01.907Z,12.80
2022-10-23T01:09:42.137Z,12.80
2022-10-23T01:12:30.498Z,12.80
2022-10-23T01:15:07.594Z,12.80
2022-10-23T01:18:00.030Z,12.80
2022-10-23T01:20:35.311Z,12.80
2022-10-23T01:23:03.162Z,12.80
2022-10-23T01:25:59.558Z,12.80
2022-10-23T01:28:53.281Z,12.70
2022-10-23T01:31:36.820Z,12.70
2022-10-23T01:34:14.176Z,12.70
2022-10-23T01:36:46.996Z,12.70
2022-10-23T01:39:28.559Z,12.70
2022-10-23T01:42:11.067Z,12.70
2022-10-23T01:44:59.451Z,12.70
2022-10-23T01:47:31.034Z,12.70
2022-10-23T01:50:06.271Z,12.60
2022-10-23T01:52:34.511Z,12.60
2022-10-23T01:55:05.756Z,12.60
2022-10-23T01:57:36.458Z,12.60
2022-10-23T02:00:15.584Z,12.60
2022-10-23T02:02:52.983Z,12.60
2022-10-23T02:05:26.326Z,12.70
2022-10-23T02:07:54.470Z,12.60
2022-10-23T02:10:27.006Z,12.60
2022-10-23T02:13:13.125Z,12.60
2022-10-23T02:15:43.296Z,12.70
2022-10-23T02:18:32.277Z,12.60
2022-10-23T02:21:07.647Z,12.70
2022-10-23T02:23:45.320Z,12.60
2022-10-23T02:26:12.314Z,12.70
2022-10-23T02:29:23.810Z,12.60
2022-10-23T02:31:50.871Z,12.70
2022-10-23T02:34:19.501Z,12.70
2022-10-23T02:36:46.780Z,12.70
2022-10-23T02:39:14.140Z,12.70
2022-10-23T02:41:51.243Z,12.60
2022-10-23T02:44:19.669Z,12.60
2022-10-23T02:47:10.246Z,12.60
2022-10-23T02:49:53.911Z,12.60
2022-10-23T02:53:00.044Z,12.60
2022-10-23T02:55:34.754Z,12.60
2022-10-23T02:58:16.516Z,12.60
2022-10-23T03:00:52.229Z,12.60
2022-10-23T03:03:34.292Z,12.60
2022-10-23T03:06:01.858Z,12.60
2022-10-23T03:08:28.982Z,12.60
2022-10-23T03:10:56.698Z,12.60
2022-10-23T03:13:24.156Z,12.60
2022-10-23T03:15:51.417Z,12.60
2022-10-23T03:18:18.472Z,12.60
2022-10-23T03:20:49.533Z,12.70
2022-10-23T03:23:16.574Z,12.60
2022-10-23T03:25:43.797Z,12.60
2022-10-23T03:28:22.276Z,12.60
2022-10-23T03:30:49.566Z,12.70
2022-10-23T03:33:16.722Z,12.70
2022-10-23T03:35:44.435Z,12.70
2022-10-23T03:38:14.402Z,12.70
2022-10-23T03:40:42.910Z,12.70
2022-10-23T03:43:13.045Z,12.60
2022-10-23T03:45:41.464Z,12.70
2022-10-23T03:48:08.720Z,12.70
2022-10-23T03:50:36.836Z,12.70
2022-10-23T03:53:05.693Z,12.70
2022-10-23T03:55:34.726Z,12.60
2022-10-23T03:58:01.969Z,12.70
2022-10-23T04:00:29.268Z,12.70
2022-10-23T04:02:56.373Z,12.70
2022-10-23T04:05:23.639Z,12.70
2022-10-23T04:07:55.230Z,12.70
2022-10-23T04:10:22.666Z,12.70
2022-10-23T04:12:50.810Z,12.70
2022-10-23T04:15:18.220Z,12.70
2022-10-23T04:17:46.810Z,12.70
2022-10-23T04:20:14.515Z,12.70
2022-10-23T04:22:42.046Z,12.70
2022-10-23T04:25:10.924Z,12.70
2022-10-23T04:27:38.133Z,12.70
2022-10-23T04:30:06.078Z,12.70
2022-10-23T04:32:33.098Z,12.70
2022-10-23T04:35:00.772Z,12.70
2022-10-23T04:37:30.607Z,12.70
2022-10-23T04:39:57.858Z,12.70
2022-10-23T04:42:24.963Z,12.70
2022-10-23T04:44:52.528Z,12.60
2022-10-23T04:47:19.752Z,12.70
2022-10-23T04:49:56.505Z,12.60
2022-10-23T04:52:57.377Z,12.60
2022-10-23T04:56:02.946Z,12.60
2022-10-23T04:58:46.070Z,12.60
2022-10-23T05:01:13.471Z,12.60
2022-10-23T05:03:40.576Z,12.60
2022-10-23T05:06:08.766Z,12.50
2022-10-23T05:09:04.864Z,12.60
2022-10-23T05:11:44.454Z,12.60
2022-10-23T05:14:11.567Z,12.60
2022-10-23T05:16:52.067Z,12.60
2022-10-23T05:19:24.448Z,12.60
2022-10-23T05:21:55.881Z,12.60
2022-10-23T05:24:27.025Z,12.60
2022-10-23T05:27:00.667Z,12.60
2022-10-23T05:29:30.771Z,12.60
2022-10-23T05:32:02.507Z,12.70
2022-10-23T05:34:35.149Z,12.70
2022-10-23T05:37:05.720Z,12.70
2022-10-23T05:39:36.953Z,12.70
2022-10-23T05:42:08.885Z,12.70
2022-10-23T05:44:37.579Z,12.70
2022-10-23T05:47:19.129Z,12.70
2022-10-23T05:50:05.425Z,12.80
2022-10-23T05:53:11.544Z,12.80
2022-10-23T05:55:50.431Z,12.90
2022-10-23T05:58:50.007Z,12.80
2022-10-23T06:01:29.146Z,12.80
2022-10-23T06:04:04.917Z,12.80
2022-10-23T06:06:56.057Z,12.80
2022-10-23T06:09:23.655Z,12.80
2022-10-23T06:11:56.219Z,12.80
2022-10-23T06:14:23.963Z,12.90
2022-10-23T06:16:52.391Z,12.90
2022-10-23T06:19:20.179Z,12.90
2022-10-23T06:21:51.261Z,13.00
2022-10-23T06:24:18.532Z,12.90
2022-10-23T06:26:59.715Z,13.00
2022-10-23T06:29:38.936Z,13.00
2022-10-23T06:32:06.941Z,13.00
2022-10-23T06:34:35.121Z,13.10
2022-10-23T06:37:02.986Z,13.10
2022-10-23T06:39:47.900Z,13.10
2022-10-23T06:42:18.089Z,13.20
2022-10-23T06:44:54.276Z,13.10
2022-10-23T06:47:39.908Z,13.10
2022-10-23T06:50:26.885Z,13.10
2022-10-23T06:52:57.397Z,13.10
2022-10-23T06:55:24.921Z,13.10
2022-10-23T06:57:52.022Z,13.10
2022-10-23T07:00:21.531Z,13.10
2022-10-23T07:02:53.122Z,13.10
2022-10-23T07:05:20.777Z,13.10
2022-10-23T07:07:48.383Z,13.20
2022-10-23T07:10:22.076Z,13.20
2022-10-23T07:12:56.584Z,13.20
2022-10-23T07:15:46.807Z,13.20
2022-10-23T07:18:21.124Z,13.20
2022-10-23T07:21:09.570Z,13.20
2022-10-23T07:23:38.925Z,13.20
2022-10-23T07:26:10.548Z,13.30
2022-10-23T07:28:38.873Z,13.30
2022-10-23T07:31:06.607Z,13.30
2022-10-23T07:33:54.127Z,13.30
2022-10-23T07:36:22.373Z,13.30
2022-10-23T07:38:51.381Z,13.30
2022-10-23T07:41:19.304Z,13.30
2022-10-23T07:43:46.982Z,13.40
2022-10-23T07:46:15.148Z,13.40
2022-10-23T07:48:43.077Z,13.50
2022-10-23T07:51:15.933Z,13.50
2022-10-23T07:53:46.175Z,13.40
2022-10-23T07:56:32.280Z,13.40
2022-10-23T07:59:22.922Z,13.40
2022-10-23T08:01:56.622Z,13.40
2022-10-23T08:04:37.601Z,13.40
2022-10-23T08:07:23.482Z,13.40
2022-10-23T08:09:53.820Z,13.40
2022-10-23T08:12:21.260Z,13.40
2022-10-23T08:14:48.777Z,13.50
2022-10-23T08:17:16.284Z,13.50
2022-10-23T08:20:06.397Z,13.50
2022-10-23T08:22:40.531Z,13.60
2022-10-23T08:25:09.123Z,13.70
2022-10-23T08:27:37.066Z,13.70
2022-10-23T08:30:05.062Z,13.70
2022-10-23T08:32:32.687Z,13.70
2022-10-23T08:35:04.062Z,13.70
2022-10-23T08:37:33.491Z,13.80
2022-10-23T08:40:00.842Z,13.80
2022-10-23T08:42:56.430Z,13.90
2022-10-23T08:45:43.178Z,13.90
2022-10-23T08:48:33.297Z,13.90
2022-10-23T08:51:40.246Z,13.90
2022-10-23T08:54:40.384Z,14.00
2022-10-23T08:57:15.054Z,14.00
2022-10-23T08:59:50.519Z,14.10
2022-10-23T09:02:43.129Z,14.10
2022-10-23T09:05:39.458Z,14.10
2022-10-23T09:08:10.144Z,14.20
2022-10-23T09:10:58.816Z,14.30
2022-10-23T09:13:47.914Z,14.30
2022-10-23T09:16:18.036Z,14.30
2022-10-23T09:18:48.347Z,14.30
2022-10-23T09:21:16.300Z,14.30
2022-10-23T09:23:43.598Z,14.30
2022-10-23T09:26:19.068Z,14.30
2022-10-23T09:29:14.346Z,14.30
2022-10-23T09:31:52.815Z,14.30
2022-10-23T09:34:24.671Z,14.40
2022-10-23T09:39:34.118Z,14.20
2022-10-23T09:42:13.948Z,14.30
2022-10-23T09:44:50.187Z,14.30
2022-10-23T09:47:24.368Z,14.30
2022-10-23T09:49:57.112Z,14.30
2022-10-23T09:52:35.846Z,14.30
2022-10-23T09:55:19.009Z,14.40
2022-10-23T09:57:47.322Z,14.50
2022-10-23T10:00:20.587Z,14.60
2022-10-23T10:03:19.340Z,14.60
2022-10-23T10:06:03.005Z,14.60
2022-10-23T10:08:44.281Z,14.50
2022-10-23T10:11:23.661Z,14.50
2022-10-23T10:14:01.973Z,14.60
2022-10-23T10:16:44.277Z,14.60
2022-10-23T10:19:54.433Z,14.70
2022-10-23T10:22:39.471Z,14.80
2022-10-23T10:25:25.554Z,14.90
2022-10-23T10:28:04.435Z,14.90
2022-10-23T10:31:11.307Z,14.90
2022-10-23T10:34:12.486Z,15.00
2022-10-23T10:36:54.852Z,15.20
2022-10-23T10:39:44.448Z,15.20
2022-10-23T10:42:23.335Z,15.30
2022-10-23T10:45:08.676Z,15.40
2022-10-23T10:48:03.763Z,15.50
2022-10-23T10:50:59.394Z,15.50
2022-10-23T10:53:47.337Z,15.50
2022-10-23T10:56:17.701Z,15.40
2022-10-23T10:58:53.242Z,15.30
2022-10-23T11:01:27.556Z,15.50
2022-10-23T11:04:06.999Z,15.70
2022-10-23T11:06:37.254Z,15.80
2022-10-23T11:09:38.366Z,15.90
2022-10-23T11:12:05.696Z,15.80
2022-10-23T11:14:34.810Z,15.70
2022-10-23T11:17:24.392Z,15.60
2022-10-23T11:20:05.230Z,15.50
2022-10-23T11:22:51.567Z,15.40
2022-10-23T11:25:28.924Z,15.30
2022-10-23T11:28:28.675Z,15.20
2022-10-23T11:31:33.835Z,15.00
2022-10-23T11:34:19.379Z,14.80
2022-10-23T11:36:58.545Z,14.80
2022-10-23T11:39:30.961Z,14.70
2022-10-23T11:42:05.831Z,14.70
2022-10-23T11:44:45.957Z,14.70
2022-10-23T11:48:05.274Z,14.70
2022-10-23T11:51:00.340Z,14.80
2022-10-23T11:53:33.062Z,14.90
2022-10-23T11:56:20.461Z,15.00
2022-10-23T11:59:27.701Z,15.10
2022-10-23T12:02:00.968Z,15.10
2022-10-23T12:04:50.437Z,15.10
2022-10-23T12:07:25.403Z,15.10
2022-10-23T12:10:02.135Z,15.10
2022-10-23T12:12:40.899Z,15.10
2022-10-23T12:15:19.138Z,15.00
2022-10-23T12:17:48.672Z,14.90
2022-10-23T12:20:29.431Z,14.90
2022-10-23T12:23:21.388Z,14.90
2022-10-23T12:26:12.805Z,14.80
2022-10-23T12:28:49.222Z,14.80
2022-10-23T12:31:52.278Z,14.80
2022-10-23T12:34:28.185Z,14.90
2022-10-23T12:37:21.842Z,14.70
2022-10-23T12:39:56.845Z,14.70
2022-10-23T12:42:29.163Z,14.70
2022-10-23T12:45:20.510Z,14.70
2022-10-23T12:47:49.249Z,14.70
2022-10-23T12:50:25.584Z,14.70
2022-10-23T12:53:04.739Z,14.80
2022-10-23T12:55:57.350Z,14.80
2022-10-23T12:58:32.138Z,14.90
2022-10-23T13:01:05.352Z,14.90
2022-10-23T13:03:35.704Z,14.80
2022-10-23T13:06:05.382Z,14.80
2022-10-23T13:08:42.231Z,14.90
2022-10-23T13:11:35.101Z,14.90
2022-10-23T13:14:27.356Z,14.90
2022-10-23T13:17:02.379Z,14.90
2022-10-23T13:19:30.366Z,14.90
2022-10-23T13:21:58.704Z,14.90
2022-10-23T13:24:28.711Z,14.90
2022-10-23T13:26:57.441Z,14.90
2022-10-23T13:29:30.054Z,14.90
2022-10-23T13:31:58.281Z,15.00
2022-10-23T13:34:30.604Z,15.00
2022-10-23T13:37:04.102Z,15.00
2022-10-23T13:39:33.980Z,15.00
2022-10-23T13:42:11.902Z,15.00
2022-10-23T13:44:39.629Z,15.00
2022-10-23T13:47:11.194Z,15.10
2022-10-23T13:49:39.442Z,15.10
2022-10-23T13:52:12.735Z,15.20
2022-10-23T13:54:40.247Z,15.20
2022-10-23T13:57:13.718Z,15.20
2022-10-23T13:59:43.722Z,15.30
2022-10-23T14:02:20.770Z,15.30
2022-10-23T14:04:50.086Z,15.30
2022-10-23T14:07:17.329Z,15.30
2022-10-23T14:09:45.081Z,15.30
2022-10-23T14:12:12.497Z,15.30
2022-10-23T14:14:39.943Z,15.30
2022-10-23T14:17:07.361Z,15.20
2022-10-23T14:22:11.711Z,15.10
2022-10-23T14:24:39.387Z,15.00
2022-10-23T14:27:06.598Z,14.90
2022-10-23T14:29:34.445Z,14.90
2022-10-23T14:32:01.675Z,14.80
2022-10-23T14:34:29.260Z,14.80
2022-10-23T14:37:08.083Z,14.80
2022-10-23T14:39:36.310Z,14.80
2022-10-23T14:42:03.802Z,14.70
2022-10-23T14:44:33.814Z,14.70
2022-10-23T14:47:03.093Z,14.70
2022-10-23T14:49:31.664Z,14.70
2022-10-23T14:52:00.922Z,14.70
2022-10-23T14:54:35.222Z,14.60
2022-10-23T14:57:03.476Z,14.50
2022-10-23T14:59:31.051Z,14.40
2022-10-23T15:01:58.582Z,14.30
2022-10-23T15:04:26.155Z,14.10
2022-10-23T15:06:53.435Z,14.00
2022-10-23T15:09:20.954Z,13.80
2022-10-23T15:11:48.242Z,13.70
2022-10-23T15:14:26.405Z,13.50
2022-10-23T15:16:53.587Z,13.40
2022-10-23T15:19:22.466Z,13.30
2022-10-23T15:21:50.241Z,13.20
2022-10-23T15:24:22.145Z,13.10
2022-10-23T15:26:51.608Z,13.10
2022-10-23T15:29:23.065Z,13.00
2022-10-23T15:31:57.722Z,13.00
2022-10-23T15:34:26.382Z,12.90
2022-10-23T15:36:54.706Z,12.80
2022-10-23T15:39:25.437Z,12.70
2022-10-23T15:41:55.500Z,12.60
2022-10-23T15:44:25.764Z,12.60
2022-10-23T15:46:53.275Z,12.50
2022-10-23T15:49:20.835Z,12.40
2022-10-23T15:51:48.224Z,12.30
2022-10-23T15:54:19.166Z,12.30
2022-10-23T15:56:49.320Z,12.20
2022-10-23T15:59:19.257Z,12.20
2022-10-23T16:01:46.988Z,12.10
2022-10-23T16:04:16.178Z,12.10
2022-10-23T16:06:45.028Z,12.00
2022-10-23T16:09:13.100Z,11.90
2022-10-23T16:11:42.011Z,11.90
2022-10-23T16:14:13.957Z,12.00
2022-10-23T16:16:41.709Z,12.10
2022-10-23T16:19:11.492Z,12.20
2022-10-23T16:21:38.776Z,12.30
2022-10-23T16:24:08.879Z,12.30
2022-10-23T16:26:37.127Z,12.30
2022-10-23T16:29:07.373Z,12.40
2022-10-23T16:31:37.124Z,12.40
2022-10-23T16:34:05.607Z,12.50
2022-10-23T16:36:34.172Z,12.50
2022-10-23T16:39:09.154Z,12.60
2022-10-23T16:41:55.029Z,12.60
2022-10-23T16:44:25.812Z,12.70
2022-10-23T16:47:02.290Z,12.60
2022-10-23T16:49:32.230Z,12.70
2022-10-23T16:51:59.454Z,12.70
2022-10-23T16:54:26.861Z,12.60
2022-10-23T16:56:54.153Z,12.60
2022-10-23T16:59:21.547Z,12.50
2022-10-23T17:01:49.240Z,12.50
2022-10-23T17:04:16.789Z,12.50
2022-10-23T17:06:46.973Z,12.60
2022-10-23T17:09:15.421Z,12.50
2022-10-23T17:11:45.026Z,12.50
2022-10-23T17:14:16.979Z,12.50
2022-10-23T17:16:45.594Z,12.40
2022-10-23T17:19:33.137Z,12.30
2022-10-23T17:22:01.648Z,12.20
2022-10-23T17:24:29.163Z,12.10
2022-10-23T17:26:56.988Z,12.00
2022-10-23T17:29:24.493Z,12.00
2022-10-23T17:31:51.850Z,11.90
2022-10-23T17:34:22.253Z,11.90
2022-10-23T17:36:52.147Z,11.90
2022-10-23T17:39:23.082Z,11.90
2022-10-23T17:41:54.287Z,11.90
2022-10-23T17:44:22.284Z,11.90
2022-10-23T17:46:53.879Z,12.00
2022-10-23T17:49:24.880Z,12.00
2022-10-23T17:51:56.684Z,12.00
2022-10-23T17:54:25.177Z,12.10
2022-10-23T17:56:52.351Z,12.10
2022-10-23T17:59:19.935Z,12.10
2022-10-23T18:01:48.496Z,12.10
2022-10-23T18:04:18.528Z,12.10
2022-10-23T18:06:51.149Z,12.10
2022-10-23T18:09:19.136Z,12.10
2022-10-23T18:11:49.419Z,12.10
2022-10-23T18:14:18.959Z,12.10
2022-10-23T18:16:46.544Z,12.20
2022-10-23T18:19:15.541Z,12.10
2022-10-23T18:21:42.669Z,12.10
2022-10-23T18:24:13.550Z,12.10
2022-10-23T18:26:42.246Z,12.10
2022-10-23T18:29:11.757Z,12.10
2022-10-23T18:31:39.280Z,12.00
2022-10-23T18:34:12.420Z,12.10
2022-10-23T18:36:41.170Z,12.00
2022-10-23T18:39:12.369Z,12.00
2022-10-23T18:41:41.536Z,12.00
2022-10-23T18:44:13.910Z,12.00
2022-10-23T18:46:40.961Z,12.00
2022-10-23T18:49:08.475Z,12.00
2022-10-23T18:51:36.997Z,12.00
2022-10-23T18:54:08.449Z,12.00
2022-10-23T18:56:36.204Z,12.10
2022-10-23T18:59:05.528Z,12.00
2022-10-23T19:01:33.817Z,12.00
2022-10-23T19:04:03.062Z,12.00
2022-10-23T19:06:31.332Z,12.00
2022-10-23T19:09:01.483Z,12.00
2022-10-23T19:11:29.186Z,12.00
2022-10-23T19:13:56.808Z,12.10
2022-10-23T19:16:36.066Z,12.00
2022-10-23T19:19:22.765Z,11.90
2022-10-23T19:21:50.581Z,12.00
2022-10-23T19:24:25.843Z,12.00
2022-10-23T19:26:52.935Z,11.90
2022-10-23T19:29:23.267Z,11.90
2022-10-23T19:31:50.673Z,12.00
2022-10-23T19:34:20.159Z,11.90
2022-10-23T19:36:48.622Z,11.90
2022-10-23T19:39:16.568Z,12.00
2022-10-23T19:41:43.780Z,11.90
2022-10-23T19:44:12.979Z,11.90
2022-10-23T19:46:40.023Z,11.90
2022-10-23T19:49:08.830Z,11.90
2022-10-23T19:51:36.355Z,11.90
2022-10-23T19:54:04.117Z,11.90
2022-10-23T19:56:31.857Z,11.90
2022-10-23T19:58:59.038Z,11.90
2022-10-23T20:01:26.228Z,11.90
2022-10-23T20:03:55.495Z,12.00
2022-10-23T20:06:25.892Z,11.90
2022-10-23T20:08:53.709Z,11.90
2022-10-23T20:11:28.210Z,11.90
2022-10-23T20:13:59.140Z,11.90
2022-10-23T20:16:29.725Z,11.90
2022-10-23T20:18:58.070Z,11.90
2022-10-23T20:21:25.525Z,11.90
2022-10-23T20:23:52.908Z,11.90
2022-10-23T20:26:23.281Z,11.80
2022-10-23T20:28:55.157Z,11.90
2022-10-23T20:31:25.382Z,11.80
2022-10-23T20:33:53.044Z,11.80
2022-10-23T20:36:25.328Z,11.80
2022-10-23T20:38:53.300Z,11.90
2022-10-23T20:41:21.006Z,11.90
2022-10-23T20:43:48.476Z,11.90
2022-10-23T20:46:15.742Z,11.90
2022-10-23T20:48:45.004Z,11.90
2022-10-23T20:51:14.617Z,11.80
2022-10-23T20:53:43.448Z,11.80
2022-10-23T20:56:23.565Z,11.90
2022-10-23T20:58:50.889Z,11.80
2022-10-23T21:01:18.658Z,11.80
2022-10-23T21:03:53.020Z,11.80
2022-10-23T21:06:20.297Z,11.80
2022-10-23T21:08:47.674Z,11.80
2022-10-23T21:11:17.451Z,11.70
2022-10-23T21:13:45.112Z,11.80
2022-10-23T21:16:18.308Z,11.70
2022-10-23T21:18:46.865Z,11.70
2022-10-23T21:21:19.287Z,11.70
2022-10-23T21:23:48.483Z,11.70
2022-10-23T21:26:17.502Z,11.60
2022-10-23T21:28:56.125Z,11.60
2022-10-23T21:31:33.866Z,11.60
2022-10-23T21:34:01.313Z,11.60
2022-10-23T21:36:31.055Z,11.60
2022-10-23T21:39:01.588Z,11.60
2022-10-23T21:41:32.337Z,11.50
2022-10-23T21:44:03.751Z,11.50
2022-10-23T21:46:33.072Z,11.50
2022-10-23T21:49:01.000Z,11.50
2022-10-23T21:51:38.206Z,11.50
2022-10-23T21:54:07.556Z,11.40
2022-10-23T21:56:43.673Z,11.40
2022-10-23T21:59:13.452Z,11.40
2022-10-23T22:01:43.156Z,11.30
2022-10-23T22:04:14.055Z,11.30
2022-10-23T22:06:45.378Z,11.40
2022-10-23T22:09:14.966Z,11.40
2022-10-23T22:11:42.443Z,11.40
2022-10-23T22:14:09.626Z,11.40
2022-10-23T22:16:36.682Z,11.40
2022-10-23T22:19:04.349Z,11.40
2022-10-23T22:21:31.960Z,11.40
2022-10-23T22:24:00.449Z,11.30
2022-10-23T22:26:33.819Z,11.30
2022-10-23T22:29:05.385Z,11.20
2022-10-23T22:31:34.146Z,11.30
2022-10-23T22:34:13.202Z,11.20
2022-10-23T22:36:50.034Z,11.20
2022-10-23T22:39:17.399Z,11.20
2022-10-23T22:41:44.410Z,11.10
2022-10-23T22:44:12.282Z,11.10
2022-10-23T22:46:39.229Z,11.10
2022-10-23T22:51:39.669Z,11.00
2022-10-23T22:54:07.077Z,11.00
2022-10-23T22:56:34.599Z,10.90
2022-10-23T22:59:02.454Z,10.80
2022-10-23T23:01:36.842Z,10.80
2022-10-23T23:04:19.454Z,10.80
2022-10-23T23:06:51.430Z,10.90
2022-10-23T23:09:18.803Z,10.90
2022-10-23T23:11:51.799Z,10.80
2022-10-23T23:14:23.681Z,10.90
2022-10-23T23:16:54.522Z,10.90
2022-10-23T23:19:23.233Z,10.90
2022-10-23T23:21:50.581Z,10.80
2022-10-23T23:24:17.906Z,10.80
2022-10-23T23:26:44.879Z,10.80
2022-10-23T23:29:12.491Z,10.90
2022-10-23T23:31:39.996Z,10.90
2022-10-23T23:34:07.177Z,10.90
2022-10-23T23:36:34.956Z,10.80
2022-10-23T23:41:34.703Z,10.70
2022-10-23T23:44:01.909Z,10.70
2022-10-23T23:46:28.937Z,10.70
2022-10-23T23:48:56.179Z,10.70
2022-10-23T23:51:25.737Z,10.80
2022-10-23T23:53:53.781Z,10.80
2022-10-23T23:56:21.794Z,10.80
2022-10-23T23:58:49.031Z,10.80
